Time;durP1;ratioP1;P1;durP2;ratioP2;P2;SDS_P1;SDS_P2;PMS_P1;PMS_P2;Temp;Humidity;BMP_temperature;BMP_pressure;BME280_temperature;BME280_humidity;BME280_pressure;Samples;Min_cycle;Max_cycle;Signal;HPM_P1;HPM_P2
2023/04/22 00:02:32;;;;;;;60.42;25.85;;;;;;;;;;6269367;28;20056;-51
2023/04/22 00:05:33;;;;;;;62.72;26.77;;;;;;;;;;6267310;28;20503;-53
2023/04/22 00:08:34;;;;;;;63.88;26.98;;;;;;;;;;6270222;28;20052;-50
2023/04/22 00:11:34;;;;;;;71.18;27.40;;;;;;;;;;6272433;28;20060;-61
2023/04/22 00:14:35;;;;;;;75.35;26.25;;;;;;;;;;6267255;28;20051;-51
2023/04/22 00:17:36;;;;;;;57.17;23.48;;;;;;;;;;6269409;28;20067;-52
2023/04/22 00:20:38;;;;;;;59.67;24.58;;;;;;;;;;6272323;28;20435;-53
2023/04/22 00:23:38;;;;;;;63.38;23.77;;;;;;;;;;6271252;28;20097;-51
2023/04/22 00:26:39;;;;;;;59.97;24.65;;;;;;;;;;6267426;28;20503;-51
2023/04/22 00:29:40;;;;;;;54.45;23.80;;;;;;;;;;6269580;28;20142;-58
2023/04/22 00:32:40;;;;;;;62.70;24.20;;;;;;;;;;6269936;28;20055;-53
2023/04/22 00:35:41;;;;;;;60.28;25.25;;;;;;;;;;6268731;28;20506;-52
2023/04/22 00:38:48;;;;;;;66.47;26.80;;;;;;;;;;6270269;28;20654;-49
2023/04/22 00:41:49;;;;;;;61.92;26.02;;;;;;;;;;6269537;28;20044;-53
2023/04/22 00:44:50;;;;;;;68.22;24.45;;;;;;;;;;6268993;28;20048;-50
2023/04/22 00:47:52;;;;;;;59.95;23.70;;;;;;;;;;6273472;28;20434;-54
2023/04/22 00:50:52;;;;;;;65.55;25.50;;;;;;;;;;6272322;28;20061;-52
2023/04/22 00:53:53;;;;;;;59.17;23.45;;;;;;;;;;6267191;28;20079;-59
2023/04/22 00:56:55;;;;;;;70.45;23.50;;;;;;;;;;6267014;28;20090;-56
2023/04/22 00:59:55;;;;;;;64.18;24.00;;;;;;;;;;6266798;28;20041;-51
2023/04/22 01:02:56;;;;;;;61.00;22.65;;;;;;;;;;6270597;28;20072;-53
2023/04/22 01:05:57;;;;;;;79.30;25.25;;;;;;;;;;6269187;28;20139;-50
2023/04/22 01:08:58;;;;;;;69.40;25.63;;;;;;;;;;6268617;28;20515;-52
2023/04/22 01:12:00;;;;;;;69.47;25.52;;;;;;;;;;6269801;28;20051;-50
2023/04/22 01:15:01;;;;;;;80.45;26.75;;;;;;;;;;6267483;28;20044;-53
2023/04/22 01:18:03;;;;;;;79.63;27.25;;;;;;;;;;6267648;28;20044;-51
2023/04/22 01:21:04;;;;;;;68.03;25.38;;;;;;;;;;6276878;28;20045;-52
2023/04/22 01:24:06;;;;;;;67.13;24.08;;;;;;;;;;6269235;28;20347;-62
2023/04/22 01:27:08;;;;;;;71.82;24.98;;;;;;;;;;6279256;28;20507;-53
2023/04/22 01:30:10;;;;;;;56.53;21.58;;;;;;;;;;6288064;28;20048;-52
2023/04/22 01:33:11;;;;;;;68.22;23.63;;;;;;;;;;6269981;28;20074;-49
2023/04/22 01:36:12;;;;;;;63.63;23.52;;;;;;;;;;6267049;28;20036;-50
2023/04/22 01:39:13;;;;;;;68.72;23.48;;;;;;;;;;6271170;28;20090;-50
2023/04/22 01:42:14;;;;;;;63.95;24.77;;;;;;;;;;6269912;28;20040;-52
2023/04/22 01:45:16;;;;;;;67.32;23.60;;;;;;;;;;6269703;28;20040;-52
2023/04/22 01:48:17;;;;;;;61.35;23.15;;;;;;;;;;6270257;28;20055;-49
2023/04/22 01:51:21;;;;;;;71.68;25.00;;;;;;;;;;6269456;28;20511;-50
2023/04/22 01:54:21;;;;;;;74.72;25.75;;;;;;;;;;6268139;28;20045;-62
2023/04/22 01:57:22;;;;;;;68.13;24.88;;;;;;;;;;6267711;28;22765;-57
2023/04/22 02:00:22;;;;;;;76.40;25.95;;;;;;;;;;6267950;28;20041;-51
2023/04/22 02:03:23;;;;;;;70.05;26.30;;;;;;;;;;6269353;28;20515;-51
2023/04/22 02:06:24;;;;;;;70.43;24.80;;;;;;;;;;6267974;28;20058;-51
2023/04/22 02:09:25;;;;;;;70.97;24.80;;;;;;;;;;6270657;28;20059;-51
2023/04/22 02:12:25;;;;;;;64.60;24.20;;;;;;;;;;6265502;28;20535;-60
2023/04/22 02:15:26;;;;;;;62.17;24.23;;;;;;;;;;6267761;28;20045;-53
2023/04/22 02:18:27;;;;;;;70.10;25.27;;;;;;;;;;6268589;28;20044;-52
2023/04/22 02:21:29;;;;;;;65.15;25.17;;;;;;;;;;6266638;28;20086;-61
2023/04/22 02:24:30;;;;;;;62.92;23.48;;;;;;;;;;6265351;28;20037;-50
2023/04/22 02:27:30;;;;;;;57.08;21.55;;;;;;;;;;6268217;28;21195;-50
2023/04/22 02:30:31;;;;;;;60.17;23.88;;;;;;;;;;6267336;28;20430;-51
2023/04/22 02:33:31;;;;;;;65.53;22.42;;;;;;;;;;6268120;28;20053;-53
2023/04/22 02:36:33;;;;;;;67.90;24.52;;;;;;;;;;6266465;28;20056;-51
2023/04/22 02:39:34;;;;;;;66.97;25.30;;;;;;;;;;6267048;28;20040;-52
2023/04/22 02:42:35;;;;;;;79.07;26.42;;;;;;;;;;6267474;28;20290;-58
2023/04/22 02:45:35;;;;;;;59.47;23.88;;;;;;;;;;6265944;28;20040;-52
2023/04/22 02:48:36;;;;;;;64.20;24.08;;;;;;;;;;6264652;28;20028;-54
2023/04/22 02:51:37;;;;;;;67.13;24.08;;;;;;;;;;6265285;28;20118;-52
2023/04/22 02:54:39;;;;;;;60.10;22.35;;;;;;;;;;6267603;28;20514;-54
2023/04/22 02:57:40;;;;;;;54.00;23.48;;;;;;;;;;6268866;28;20518;-53
2023/04/22 03:00:41;;;;;;;58.72;22.77;;;;;;;;;;6265721;28;20041;-53
2023/04/22 03:03:41;;;;;;;55.60;21.98;;;;;;;;;;6266947;28;20057;-51
2023/04/22 03:06:42;;;;;;;61.38;23.13;;;;;;;;;;6264033;28;20530;-51
2023/04/22 03:09:42;;;;;;;57.63;21.48;;;;;;;;;;6267895;28;20094;-55
2023/04/22 03:12:43;;;;;;;58.78;23.55;;;;;;;;;;6267633;28;20037;-54
2023/04/22 03:15:43;;;;;;;55.17;23.00;;;;;;;;;;6267187;28;20051;-54
2023/04/22 03:18:44;;;;;;;54.13;21.88;;;;;;;;;;6266370;28;20067;-51
2023/04/22 03:21:45;;;;;;;58.38;22.83;;;;;;;;;;6267508;28;20051;-49
2023/04/22 03:24:45;;;;;;;59.17;22.83;;;;;;;;;;6265172;28;20056;-50
2023/04/22 03:27:46;;;;;;;55.20;22.10;;;;;;;;;;6264671;28;20041;-53
2023/04/22 03:30:47;;;;;;;52.65;22.02;;;;;;;;;;6266370;28;20139;-54
2023/04/22 03:33:47;;;;;;;60.65;21.80;;;;;;;;;;6268477;28;20130;-51
2023/04/22 03:36:48;;;;;;;48.65;20.75;;;;;;;;;;6269827;28;20053;-56
2023/04/22 03:39:49;;;;;;;54.28;20.45;;;;;;;;;;6286086;28;20051;-50
2023/04/22 03:42:49;;;;;;;57.67;21.95;;;;;;;;;;6284335;28;20075;-51
2023/04/22 03:45:50;;;;;;;53.67;21.48;;;;;;;;;;6270089;28;20045;-52
2023/04/22 03:48:51;;;;;;;54.17;21.40;;;;;;;;;;6272960;28;20045;-51
2023/04/22 03:51:51;;;;;;;57.28;22.17;;;;;;;;;;6272210;28;20052;-53
2023/04/22 03:54:52;;;;;;;56.58;21.17;;;;;;;;;;6269970;28;20125;-62
2023/04/22 03:57:53;;;;;;;55.38;21.55;;;;;;;;;;6269304;28;20065;-49
2023/04/22 04:00:53;;;;;;;60.70;22.30;;;;;;;;;;6270324;28;20500;-59
2023/04/22 04:03:54;;;;;;;51.15;20.98;;;;;;;;;;6270138;28;20049;-52
2023/04/22 04:06:55;;;;;;;57.50;21.63;;;;;;;;;;6271036;28;20102;-54
2023/04/22 04:09:55;;;;;;;51.20;20.85;;;;;;;;;;6271355;28;20063;-53
2023/04/22 04:12:56;;;;;;;51.13;19.92;;;;;;;;;;6271155;28;20068;-57
2023/04/22 04:15:59;;;;;;;49.05;19.55;;;;;;;;;;6271079;28;20130;-58
2023/04/22 04:18:59;;;;;;;;;;;;;;;;;;6280957;28;20511;-54
2023/04/22 04:22:00;;;;;;;46.83;19.67;;;;;;;;;;6273569;28;19928;-59
2023/04/22 04:25:01;;;;;;;44.78;19.27;;;;;;;;;;6271556;28;20094;-54
2023/04/22 04:28:04;;;;;;;47.35;21.20;;;;;;;;;;6268423;28;20094;-59
2023/04/22 04:31:04;;;;;;;52.97;20.35;;;;;;;;;;6270613;28;20036;-61
2023/04/22 04:34:06;;;;;;;51.33;20.70;;;;;;;;;;6269957;28;20044;-51
2023/04/22 04:37:07;;;;;;;46.88;20.85;;;;;;;;;;6268241;28;20041;-54
2023/04/22 04:40:09;;;;;;;44.88;20.38;;;;;;;;;;6266790;28;20051;-55
2023/04/22 04:43:11;;;;;;;51.65;19.95;;;;;;;;;;6271476;28;20049;-49
2023/04/22 04:46:13;;;;;;;49.63;20.30;;;;;;;;;;6267569;28;20045;-58
2023/04/22 04:49:15;;;;;;;48.88;20.05;;;;;;;;;;6268419;28;20288;-50
2023/04/22 04:52:16;;;;;;;51.05;20.70;;;;;;;;;;6271288;28;20512;-49
2023/04/22 04:55:16;;;;;;;43.30;20.30;;;;;;;;;;6269498;28;20084;-57
2023/04/22 04:58:17;;;;;;;50.17;20.90;;;;;;;;;;6269474;28;20044;-49
2023/04/22 05:01:18;;;;;;;74.28;28.33;;;;;;;;;;6268130;28;20032;-51
2023/04/22 05:04:18;;;;;;;84.32;32.28;;;;;;;;;;6264315;28;20037;-55
2023/04/22 05:07:19;;;;;;;140.25;48.97;;;;;;;;;;6267330;28;20152;-51
2023/04/22 05:10:20;;;;;;;101.45;38.50;;;;;;;;;;6269940;28;20044;-49
2023/04/22 05:13:21;;;;;;;81.20;31.98;;;;;;;;;;6268150;28;20548;-53
2023/04/22 05:16:21;;;;;;;76.72;31.83;;;;;;;;;;6275888;28;20053;-52
2023/04/22 05:19:22;;;;;;;68.13;29.08;;;;;;;;;;6264707;28;20041;-50
2023/04/22 05:22:23;;;;;;;71.85;30.35;;;;;;;;;;6270859;28;20041;-52
2023/04/22 05:25:23;;;;;;;64.63;30.17;;;;;;;;;;6267586;28;20044;-58
2023/04/22 05:28:24;;;;;;;75.90;30.23;;;;;;;;;;6275538;28;20454;-60
2023/04/22 05:31:25;;;;;;;60.42;27.35;;;;;;;;;;6274749;28;20049;-50
2023/04/22 05:34:26;;;;;;;58.28;27.60;;;;;;;;;;6268768;28;20053;-52
2023/04/22 05:37:27;;;;;;;66.27;27.30;;;;;;;;;;6267933;28;20045;-51
2023/04/22 05:40:27;;;;;;;54.70;26.42;;;;;;;;;;6273016;28;20899;-52
2023/04/22 05:43:28;;;;;;;61.88;27.27;;;;;;;;;;6271160;28;20053;-58
2023/04/22 05:46:29;;;;;;;64.65;28.25;;;;;;;;;;6284886;28;20056;-53
2023/04/22 05:49:30;;;;;;;58.80;27.37;;;;;;;;;;6272383;28;20443;-52
2023/04/22 05:52:30;;;;;;;62.55;28.15;;;;;;;;;;6269094;28;20378;-53
2023/04/22 05:55:31;;;;;;;63.80;30.15;;;;;;;;;;6265315;28;20137;-53
2023/04/22 05:58:32;;;;;;;55.92;28.10;;;;;;;;;;6266534;28;20051;-51
2023/04/22 06:01:34;;;;;;;70.30;32.30;;;;;;;;;;6263865;28;20041;-55
2023/04/22 06:04:35;;;;;;;70.32;32.40;;;;;;;;;;6269032;28;20085;-56
2023/04/22 06:07:35;;;;;;;60.88;30.50;;;;;;;;;;6272793;28;20045;-58
2023/04/22 06:10:36;;;;;;;67.32;31.40;;;;;;;;;;6266188;28;20427;-50
2023/04/22 06:13:37;;;;;;;58.38;30.48;;;;;;;;;;6268147;28;20047;-57
2023/04/22 06:16:38;;;;;;;58.65;29.98;;;;;;;;;;6266422;28;21088;-60
2023/04/22 06:19:39;;;;;;;61.50;31.77;;;;;;;;;;6266953;28;20538;-52
2023/04/22 06:22:39;;;;;;;60.72;30.25;;;;;;;;;;6265022;28;20049;-54
2023/04/22 06:25:40;;;;;;;55.40;28.67;;;;;;;;;;6266213;28;20068;-54
2023/04/22 06:28:40;;;;;;;60.53;30.98;;;;;;;;;;6268336;28;20032;-53
2023/04/22 06:31:41;;;;;;;54.35;28.15;;;;;;;;;;6266904;28;20049;-52
2023/04/22 06:34:42;;;;;;;60.00;29.75;;;;;;;;;;6268372;28;20051;-63
2023/04/22 06:37:43;;;;;;;56.75;28.80;;;;;;;;;;6263682;28;20159;-52
2023/04/22 06:40:43;;;;;;;54.40;29.05;;;;;;;;;;6267092;28;20041;-53
2023/04/22 06:43:44;;;;;;;61.17;27.98;;;;;;;;;;6265068;28;20462;-54
2023/04/22 06:46:45;;;;;;;50.40;26.90;;;;;;;;;;6264303;28;20033;-54
2023/04/22 06:49:46;;;;;;;49.03;26.27;;;;;;;;;;6268242;28;20045;-53
2023/04/22 06:52:46;;;;;;;47.05;26.20;;;;;;;;;;6266158;28;20052;-51
2023/04/22 06:55:47;;;;;;;47.70;25.58;;;;;;;;;;6267118;28;20072;-55
2023/04/22 06:58:48;;;;;;;44.00;25.13;;;;;;;;;;6268470;28;20099;-55
2023/04/22 07:01:48;;;;;;;43.78;24.75;;;;;;;;;;6266685;28;20097;-56
2023/04/22 07:04:49;;;;;;;48.92;25.30;;;;;;;;;;6266548;28;20037;-51
2023/04/22 07:07:50;;;;;;;44.05;24.58;;;;;;;;;;6269008;28;20041;-53
2023/04/22 07:10:50;;;;;;;43.28;22.92;;;;;;;;;;6270047;28;20032;-51
2023/04/22 07:13:51;;;;;;;43.70;24.00;;;;;;;;;;6264207;28;20055;-51
2023/04/22 07:16:51;;;;;;;37.63;21.75;;;;;;;;;;6264931;28;20403;-57
2023/04/22 07:19:52;;;;;;;37.72;21.30;;;;;;;;;;6266855;28;20149;-53
2023/04/22 07:22:53;;;;;;;34.30;19.67;;;;;;;;;;6265958;28;20056;-52
2023/04/22 07:25:53;;;;;;;32.85;19.80;;;;;;;;;;6265883;28;20063;-54
2023/04/22 07:28:54;;;;;;;34.25;19.45;;;;;;;;;;6267943;28;20037;-54
2023/04/22 07:31:55;;;;;;;34.28;19.48;;;;;;;;;;6267342;28;20037;-59
2023/04/22 07:34:55;;;;;;;35.10;19.40;;;;;;;;;;6264022;28;20637;-52
2023/04/22 07:37:56;;;;;;;32.65;19.08;;;;;;;;;;6269305;28;20037;-51
2023/04/22 07:40:56;;;;;;;28.92;17.55;;;;;;;;;;6264280;28;20516;-51
2023/04/22 07:43:57;;;;;;;31.35;17.98;;;;;;;;;;6262921;28;20120;-59
2023/04/22 07:46:58;;;;;;;29.33;16.77;;;;;;;;;;6268043;28;20045;-56
2023/04/22 07:49:59;;;;;;;30.50;18.30;;;;;;;;;;6266516;28;20385;-53
2023/04/22 07:53:00;;;;;;;29.83;17.85;;;;;;;;;;6280879;28;20036;-58
2023/04/22 07:56:01;;;;;;;26.80;15.73;;;;;;;;;;6266350;28;20049;-53
2023/04/22 07:59:02;;;;;;;27.05;15.73;;;;;;;;;;6270710;28;20411;-52
2023/04/22 08:02:03;;;;;;;32.92;16.80;;;;;;;;;;6285449;28;20086;-53
2023/04/22 08:05:04;;;;;;;25.73;15.45;;;;;;;;;;6269893;28;20049;-54
2023/04/22 08:08:07;;;;;;;21.33;13.25;;;;;;;;;;6267725;28;20033;-53
2023/04/22 08:11:07;;;;;;;22.30;13.13;;;;;;;;;;6265454;28;20115;-54
2023/04/22 08:14:08;;;;;;;20.63;11.15;;;;;;;;;;6265755;28;20045;-55
2023/04/22 08:17:09;;;;;;;14.70;8.82;;;;;;;;;;6270883;28;20033;-53
2023/04/22 08:20:09;;;;;;;15.73;9.48;;;;;;;;;;6281502;28;20056;-49
2023/04/22 08:23:10;;;;;;;20.42;9.00;;;;;;;;;;6294554;28;20048;-50
2023/04/22 08:26:13;;;;;;;18.07;9.17;;;;;;;;;;6290124;28;20043;-51
2023/04/22 08:29:14;;;;;;;10.55;6.20;;;;;;;;;;6280940;28;20135;-55
2023/04/22 08:32:15;;;;;;;9.55;5.28;;;;;;;;;;6276955;28;20033;-52
2023/04/22 08:35:15;;;;;;;11.70;6.70;;;;;;;;;;6266926;28;20049;-55
2023/04/22 08:38:16;;;;;;;10.65;6.15;;;;;;;;;;6267587;28;20568;-54
2023/04/22 08:41:20;;;;;;;18.77;12.20;;;;;;;;;;6268493;28;20033;-56
2023/04/22 08:44:21;;;;;;;11.75;7.20;;;;;;;;;;6269009;28;20037;-59
2023/04/22 08:47:23;;;;;;;14.52;7.40;;;;;;;;;;6266328;28;20033;-55
2023/04/22 08:50:25;;;;;;;10.30;5.70;;;;;;;;;;6271413;28;20049;-53
2023/04/22 08:53:25;;;;;;;15.00;7.07;;;;;;;;;;6277242;28;20563;-55
2023/04/22 08:56:28;;;;;;;11.20;6.93;;;;;;;;;;6273319;28;20056;-59
2023/04/22 08:59:29;;;;;;;;;;;;;;;;;;6272392;28;20128;-52
2023/04/22 09:02:31;;;;;;;11.70;5.90;;;;;;;;;;6265729;28;19924;-53
2023/04/22 09:05:33;;;;;;;8.50;6.03;;;;;;;;;;6265356;28;20313;-54
2023/04/22 09:08:34;;;;;;;;;;;;;;;;;;6271324;28;20056;-53
2023/04/22 09:11:35;;;;;;;11.98;7.00;;;;;;;;;;6291990;28;19928;-54
2023/04/22 09:14:36;;;;;;;10.93;6.97;;;;;;;;;;6276439;28;20048;-56
2023/04/22 09:17:40;;;;;;;14.75;9.07;;;;;;;;;;6283455;28;20040;-62
2023/04/22 09:20:41;;;;;;;15.77;9.13;;;;;;;;;;6285550;28;20125;-52
2023/04/22 09:23:52;;;;;;;13.45;7.43;;;;;;;;;;6273313;28;20044;-57
2023/04/22 09:26:55;;;;;;;13.10;7.05;;;;;;;;;;6266635;28;20482;-54
2023/04/22 09:29:56;;;;;;;15.48;8.13;;;;;;;;;;6281558;28;20132;-51
2023/04/22 09:32:58;;;;;;;13.93;7.63;;;;;;;;;;6283846;28;20071;-62
2023/04/22 09:36:08;;;;;;;12.32;7.60;;;;;;;;;;6279565;28;20033;-62
2023/04/22 09:39:08;;;;;;;13.88;8.48;;;;;;;;;;6283599;28;20044;-54
2023/04/22 09:42:10;;;;;;;13.95;8.20;;;;;;;;;;6289994;28;20033;-54
2023/04/22 09:45:10;;;;;;;13.45;7.22;;;;;;;;;;6286142;28;20175;-55
2023/04/22 09:48:17;;;;;;;14.35;9.10;;;;;;;;;;6270756;28;20037;-52
2023/04/22 09:51:19;;;;;;;13.32;8.30;;;;;;;;;;6271091;28;20059;-56
2023/04/22 09:54:22;;;;;;;;;;;;;;;;;;6268447;28;20147;-55
2023/04/22 09:57:22;;;;;;;11.75;7.30;;;;;;;;;;6266039;28;19935;-63
2023/04/22 10:00:27;;;;;;;16.00;7.38;;;;;;;;;;6273060;28;20515;-55
2023/04/22 10:03:28;;;;;;;14.40;8.10;;;;;;;;;;6277939;28;20060;-56
2023/04/22 10:06:30;;;;;;;11.15;7.45;;;;;;;;;;6273559;28;20083;-53
2023/04/22 10:09:31;;;;;;;12.95;7.53;;;;;;;;;;6269875;28;20063;-55
2023/04/22 10:12:34;;;;;;;9.70;6.47;;;;;;;;;;6269725;28;20041;-53
2023/04/22 10:15:35;;;;;;;12.35;7.35;;;;;;;;;;6267832;28;20044;-51
2023/04/22 10:18:38;;;;;;;12.57;7.30;;;;;;;;;;6264568;28;21024;-55
2023/04/22 10:21:45;;;;;;;10.77;6.80;;;;;;;;;;6269656;28;20139;-53
2023/04/22 10:24:46;;;;;;;10.90;6.53;;;;;;;;;;6270828;28;20041;-61
2023/04/22 10:27:53;;;;;;;10.60;6.85;;;;;;;;;;6267614;28;20055;-52
2023/04/22 10:30:53;;;;;;;10.40;6.28;;;;;;;;;;6271170;28;20629;-54
2023/04/22 10:34:14;;;;;;;10.85;5.95;;;;;;;;;;6269589;28;20063;-50
2023/04/22 10:37:18;;;;;;;8.45;5.85;;;;;;;;;;6265543;28;20135;-52
2023/04/22 10:40:21;;;;;;;10.65;6.28;;;;;;;;;;6266561;28;20790;-55
2023/04/22 10:43:39;;;;;;;9.48;6.20;;;;;;;;;;6267251;28;20052;-55
2023/04/22 10:46:41;;;;;;;10.93;6.03;;;;;;;;;;6266123;28;20049;-53
2023/04/22 10:49:42;;;;;;;9.40;5.97;;;;;;;;;;6269235;28;20043;-54
2023/04/22 10:52:53;;;;;;;9.70;6.18;;;;;;;;;;6267392;28;20072;-56
2023/04/22 10:55:55;;;;;;;8.93;6.15;;;;;;;;;;6268779;28;20045;-56
2023/04/22 10:58:58;;;;;;;8.73;5.40;;;;;;;;;;6266429;28;20063;-51
2023/04/22 11:02:05;;;;;;;9.55;6.00;;;;;;;;;;6266741;28;20051;-52
2023/04/22 11:05:21;;;;;;;13.45;6.50;;;;;;;;;;6269327;28;20080;-56
2023/04/22 11:08:27;;;;;;;16.52;10.52;;;;;;;;;;6269877;28;20052;-55
2023/04/22 11:11:27;;;;;;;11.82;7.30;;;;;;;;;;6271079;28;20503;-52
2023/04/22 11:14:28;;;;;;;9.93;7.13;;;;;;;;;;6267029;28;20053;-53
2023/04/22 11:17:30;;;;;;;12.65;7.15;;;;;;;;;;6268889;28;20052;-59
2023/04/22 11:20:31;;;;;;;11.75;7.03;;;;;;;;;;6278724;28;20056;-52
2023/04/22 11:23:31;;;;;;;10.40;6.20;;;;;;;;;;6268356;28;20797;-54
2023/04/22 11:26:35;;;;;;;9.93;7.07;;;;;;;;;;6267265;28;20083;-55
2023/04/22 11:29:35;;;;;;;10.90;5.55;;;;;;;;;;6270137;28;20090;-54
2023/04/22 11:32:38;;;;;;;10.32;5.43;;;;;;;;;;6266397;28;20434;-54
2023/04/22 11:35:41;;;;;;;10.77;6.10;;;;;;;;;;6269714;28;20094;-59
2023/04/22 11:38:41;;;;;;;11.07;5.70;;;;;;;;;;6269104;28;20511;-52
2023/04/22 11:41:42;;;;;;;9.93;5.80;;;;;;;;;;6267833;28;20098;-56
2023/04/22 11:44:43;;;;;;;11.50;5.53;;;;;;;;;;6266178;28;20048;-53
2023/04/22 11:47:49;;;;;;;8.13;4.93;;;;;;;;;;6263814;28;20040;-58
2023/04/22 11:51:06;;;;;;;11.75;6.05;;;;;;;;;;6267560;28;20363;-52
2023/04/22 11:54:08;;;;;;;9.85;5.50;;;;;;;;;;6267061;28;20381;-50
2023/04/22 11:57:10;;;;;;;11.88;6.20;;;;;;;;;;6268370;28;20727;-53
2023/04/22 12:00:13;;;;;;;12.35;5.28;;;;;;;;;;6272572;28;20052;-52
2023/04/22 12:03:16;;;;;;;20.58;13.13;;;;;;;;;;6273124;28;20697;-52
2023/04/22 12:06:17;;;;;;;11.10;6.20;;;;;;;;;;6271146;28;20068;-59
2023/04/22 12:09:18;;;;;;;10.33;6.60;;;;;;;;;;6271492;28;20055;-55
2023/04/22 12:12:26;;;;;;;9.80;5.97;;;;;;;;;;6287764;28;20056;-53
2023/04/22 12:15:36;;;;;;;8.85;5.43;;;;;;;;;;6270431;28;20496;-54
2023/04/22 12:18:46;;;;;;;8.70;5.15;;;;;;;;;;6269045;28;20045;-53
2023/04/22 12:21:47;;;;;;;8.57;5.68;;;;;;;;;;6271090;28;20102;-58
2023/04/22 12:24:49;;;;;;;20.40;13.23;;;;;;;;;;6272915;28;20078;-54
2023/04/22 12:27:49;;;;;;;20.50;12.50;;;;;;;;;;6271941;28;20568;-50
2023/04/22 12:30:50;;;;;;;7.07;4.77;;;;;;;;;;6272610;28;20049;-52
2023/04/22 12:33:52;;;;;;;7.60;5.27;;;;;;;;;;6271529;28;20056;-52
2023/04/22 12:36:55;;;;;;;8.32;5.28;;;;;;;;;;6266603;28;20040;-58
2023/04/22 12:39:55;;;;;;;10.30;5.40;;;;;;;;;;6271918;28;20058;-60
2023/04/22 12:42:56;;;;;;;8.00;4.50;;;;;;;;;;6271498;28;20200;-50
2023/04/22 12:45:57;;;;;;;8.63;4.47;;;;;;;;;;6270914;28;20064;-55
2023/04/22 12:48:58;;;;;;;9.50;4.28;;;;;;;;;;6267253;28;20063;-50
2023/04/22 12:51:58;;;;;;;7.27;4.87;;;;;;;;;;6270861;28;20480;-51
2023/04/22 12:54:59;;;;;;;9.13;5.07;;;;;;;;;;6272585;28;20044;-51
2023/04/22 12:58:00;;;;;;;8.90;5.53;;;;;;;;;;6268151;28;20067;-49
2023/04/22 13:01:01;;;;;;;10.80;6.83;;;;;;;;;;6269777;28;20044;-61
2023/04/22 13:04:01;;;;;;;14.60;9.73;;;;;;;;;;6280012;28;20099;-55
2023/04/22 13:07:02;;;;;;;8.77;5.03;;;;;;;;;;6278702;28;20049;-50
2023/04/22 13:10:03;;;;;;;6.87;5.00;;;;;;;;;;6280889;28;20048;-51
2023/04/22 13:13:05;;;;;;;10.75;7.07;;;;;;;;;;6282804;28;20458;-50
2023/04/22 13:16:05;;;;;;;10.65;5.85;;;;;;;;;;6280195;28;20060;-51
2023/04/22 13:19:06;;;;;;;8.13;5.40;;;;;;;;;;6279982;28;20044;-51
2023/04/22 13:22:07;;;;;;;6.43;4.40;;;;;;;;;;6283032;28;20059;-53
2023/04/22 13:25:08;;;;;;;7.10;4.37;;;;;;;;;;6282089;28;20051;-50
2023/04/22 13:28:10;;;;;;;11.02;6.78;;;;;;;;;;6279625;28;20117;-54
2023/04/22 13:31:11;;;;;;;11.85;6.50;;;;;;;;;;6282693;28;20147;-53
2023/04/22 13:34:11;;;;;;;12.83;9.40;;;;;;;;;;6282450;28;20063;-53
2023/04/22 13:37:14;;;;;;;10.33;6.40;;;;;;;;;;6279381;28;20954;-57
2023/04/22 13:40:15;;;;;;;10.52;6.40;;;;;;;;;;6281339;28;20080;-51
2023/04/22 13:43:15;;;;;;;8.37;5.97;;;;;;;;;;6281141;28;20138;-50
2023/04/22 13:46:16;;;;;;;9.47;4.97;;;;;;;;;;6279917;28;20055;-49
2023/04/22 13:49:16;;;;;;;8.07;4.47;;;;;;;;;;6279850;28;20145;-50
2023/04/22 13:52:17;;;;;;;8.13;3.87;;;;;;;;;;6282197;28;20041;-49
2023/04/22 13:55:18;;;;;;;6.93;4.13;;;;;;;;;;6279538;28;20045;-50
2023/04/22 13:58:18;;;;;;;7.33;4.20;;;;;;;;;;6278719;28;20059;-52
2023/04/22 14:01:19;;;;;;;9.23;5.13;;;;;;;;;;6282030;28;20071;-51
2023/04/22 14:04:19;;;;;;;11.57;8.17;;;;;;;;;;6281290;28;20090;-52
2023/04/22 14:07:20;;;;;;;12.13;4.80;;;;;;;;;;6277589;28;20052;-52
2023/04/22 14:10:21;;;;;;;8.87;4.70;;;;;;;;;;6281338;28;20032;-51
2023/04/22 14:13:22;;;;;;;6.50;4.00;;;;;;;;;;6281893;28;20048;-51
2023/04/22 14:16:23;;;;;;;6.80;3.88;;;;;;;;;;6279146;28;20105;-52
2023/04/22 14:19:24;;;;;;;8.57;5.87;;;;;;;;;;6279154;28;20048;-56
2023/04/22 14:22:26;;;;;;;7.00;4.07;;;;;;;;;;6277345;28;20064;-54
2023/04/22 14:25:27;;;;;;;9.27;5.83;;;;;;;;;;6280585;28;20057;-57
2023/04/22 14:28:27;;;;;;;12.30;7.17;;;;;;;;;;6279168;28;20399;-50
2023/04/22 14:31:28;;;;;;;14.27;9.13;;;;;;;;;;6282495;28;20078;-54
2023/04/22 14:34:29;;;;;;;16.77;11.57;;;;;;;;;;6279552;28;20483;-52
2023/04/22 14:37:30;;;;;;;11.33;6.30;;;;;;;;;;6276757;28;20140;-52
2023/04/22 14:40:31;;;;;;;6.18;4.22;;;;;;;;;;6280756;28;20061;-49
2023/04/22 14:43:32;;;;;;;7.17;4.13;;;;;;;;;;6280417;28;20419;-50
2023/04/22 14:46:33;;;;;;;33.03;23.33;;;;;;;;;;6274222;28;20067;-51
2023/04/22 14:49:34;;;;;;;20.53;9.93;;;;;;;;;;6276171;28;20049;-57
2023/04/22 14:52:34;;;;;;;9.47;6.63;;;;;;;;;;6277249;28;20052;-50
2023/04/22 14:55:36;;;;;;;8.85;5.47;;;;;;;;;;6285893;28;20055;-50
2023/04/22 14:58:36;;;;;;;10.20;4.80;;;;;;;;;;6281663;28;20068;-49
2023/04/22 15:01:40;;;;;;;5.60;3.77;;;;;;;;;;6281356;28;20381;-61
2023/04/22 15:04:42;;;;;;;13.70;9.52;;;;;;;;;;6286090;28;20138;-55
2023/04/22 15:07:43;;;;;;;23.20;15.45;;;;;;;;;;6280756;28;21319;-51
2023/04/22 15:10:44;;;;;;;8.10;5.60;;;;;;;;;;6285485;28;20045;-50
2023/04/22 15:13:45;;;;;;;6.43;3.70;;;;;;;;;;6281824;28;20402;-51
2023/04/22 15:16:45;;;;;;;6.73;3.97;;;;;;;;;;6280411;28;20040;-53
2023/04/22 15:19:46;;;;;;;5.63;3.73;;;;;;;;;;6285210;28;20061;-55
2023/04/22 15:22:47;;;;;;;6.20;3.80;;;;;;;;;;6290239;28;20052;-50
2023/04/22 15:25:48;;;;;;;6.10;3.75;;;;;;;;;;6285803;28;20044;-54
2023/04/22 15:28:49;;;;;;;6.23;3.90;;;;;;;;;;6284138;28;20743;-54
2023/04/22 15:31:50;;;;;;;8.75;3.72;;;;;;;;;;6287492;28;20429;-52
2023/04/22 15:34:51;;;;;;;5.83;3.60;;;;;;;;;;6291101;28;20052;-54
2023/04/22 15:37:53;;;;;;;6.50;3.83;;;;;;;;;;6288722;28;20052;-55
2023/04/22 15:40:53;;;;;;;;;;;;;;;;;;6291486;28;20212;-52
2023/04/22 15:43:54;;;;;;;9.45;4.18;;;;;;;;;;6286733;28;20470;-54
2023/04/22 15:46:56;;;;;;;5.70;3.70;;;;;;;;;;6284876;28;20044;-53
2023/04/22 15:50:04;;;;;;;7.15;3.70;;;;;;;;;;6284981;28;20712;-53
2023/04/22 15:53:05;;;;;;;8.40;4.10;;;;;;;;;;6286055;28;20437;-54
2023/04/22 15:56:07;;;;;;;7.37;5.07;;;;;;;;;;6289424;28;20049;-55
2023/04/22 15:59:07;;;;;;;10.80;6.07;;;;;;;;;;6286920;28;20088;-54
2023/04/22 16:02:08;;;;;;;8.00;4.43;;;;;;;;;;6292494;28;20089;-54
2023/04/22 16:05:10;;;;;;;10.73;4.90;;;;;;;;;;6287660;28;20788;-54
2023/04/22 16:08:12;;;;;;;9.73;4.85;;;;;;;;;;6291896;28;20052;-65
2023/04/22 16:11:14;;;;;;;10.25;5.18;;;;;;;;;;6289579;28;20036;-52
2023/04/22 16:14:15;;;;;;;7.97;5.15;;;;;;;;;;6287726;28;21668;-56
2023/04/22 16:17:16;;;;;;;9.00;4.45;;;;;;;;;;6288516;28;20079;-54
2023/04/22 16:20:17;;;;;;;8.23;4.40;;;;;;;;;;6290794;28;20049;-51
2023/04/22 16:23:17;;;;;;;7.97;4.37;;;;;;;;;;6289415;28;20293;-50
2023/04/22 16:26:18;;;;;;;6.80;4.37;;;;;;;;;;6286397;28;20048;-58
2023/04/22 16:29:19;;;;;;;8.67;4.90;;;;;;;;;;6281634;28;20044;-56
2023/04/22 16:32:19;;;;;;;8.20;4.43;;;;;;;;;;6282664;28;20723;-56
2023/04/22 16:35:20;;;;;;;14.33;8.50;;;;;;;;;;6288136;28;20067;-55
2023/04/22 16:38:21;;;;;;;9.93;5.40;;;;;;;;;;6282161;28;20072;-52
2023/04/22 16:41:21;;;;;;;9.70;7.40;;;;;;;;;;6288096;28;20438;-56
2023/04/22 16:44:22;;;;;;;11.23;6.17;;;;;;;;;;6292392;28;20529;-53
2023/04/22 16:47:23;;;;;;;8.33;5.03;;;;;;;;;;6281841;28;20036;-61
2023/04/22 16:50:23;;;;;;;9.60;6.10;;;;;;;;;;6287179;28;20044;-54
2023/04/22 16:53:24;;;;;;;13.37;8.43;;;;;;;;;;6286865;28;20133;-57
2023/04/22 16:56:25;;;;;;;10.73;6.60;;;;;;;;;;6285792;28;20052;-59
2023/04/22 16:59:25;;;;;;;11.47;7.60;;;;;;;;;;6285776;28;20093;-56
2023/04/22 17:02:26;;;;;;;11.20;8.13;;;;;;;;;;6291619;28;20056;-57
2023/04/22 17:05:27;;;;;;;13.77;8.33;;;;;;;;;;6288846;28;20057;-58
2023/04/22 17:08:27;;;;;;;12.20;7.67;;;;;;;;;;6284539;28;20074;-55
2023/04/22 17:11:31;;;;;;;12.57;7.43;;;;;;;;;;6290775;28;20036;-54
2023/04/22 17:14:31;;;;;;;13.95;8.50;;;;;;;;;;6287630;28;20045;-54
2023/04/22 17:17:32;;;;;;;13.50;8.90;;;;;;;;;;6283928;28;20052;-57
2023/04/22 17:20:34;;;;;;;13.37;8.37;;;;;;;;;;6290476;28;20044;-55
2023/04/22 17:23:35;;;;;;;19.35;11.65;;;;;;;;;;6288149;28;20071;-55
2023/04/22 17:26:36;;;;;;;28.23;15.03;;;;;;;;;;6287378;28;20055;-59
2023/04/22 17:29:36;;;;;;;23.30;12.67;;;;;;;;;;6283462;28;20488;-55
2023/04/22 17:32:37;;;;;;;24.60;14.10;;;;;;;;;;6288942;28;20078;-52
2023/04/22 17:35:38;;;;;;;21.17;10.57;;;;;;;;;;6285891;28;20061;-54
2023/04/22 17:38:39;;;;;;;21.30;12.20;;;;;;;;;;6287710;28;20055;-50
2023/04/22 17:41:40;;;;;;;56.75;36.03;;;;;;;;;;6287677;28;20063;-50
2023/04/22 17:44:41;;;;;;;24.17;14.63;;;;;;;;;;6285935;28;20044;-53
2023/04/22 17:47:41;;;;;;;31.43;18.97;;;;;;;;;;6283953;28;20093;-60
2023/04/22 17:50:42;;;;;;;36.43;23.30;;;;;;;;;;6285221;28;20806;-49